Latest Weather Observations for Tarcoola

IDS60801

Issued at 9:01 am CST Thursday 25 May 2017 (issued every 30 minutes, with the page automatically refreshed every 10 minutes)

About weather observations | Map of weather stations | Latest weather observations for SA | Other Formats
Station Details ID: 016098 Name: TARCOOLA AERO Lat: -30.71 Lon: 134.58 Height: 123.0 m
Data from the previous 72 hours. | See also: Recent months at Tarcoola
Date/Time
CST
Temp
°C
App
Temp
°C
Dew
Point
°C
Rel
Hum
%
Delta-T
°C
Wind Press
QNH
hPa
Press
MSL
hPa
Rain since
9am
mm
Dir  Spd
km/h
Gust
km/h
Spd
kts
Gust
kts
25/09:00am 13.0 10.8 5.4 60 3.5 NE 6 7 3 4 1024.4 1024.3 0.0
25/08:30am 9.3 8.0 4.1 70 2.3 CALM 0 0 0 0 1024.3 1024.2 0.0
25/08:00am 6.0 3.1 2.8 80 1.3 WSW 7 9 4 5 1023.9 1023.8 0.0
25/07:30am 3.7 1.8 0.6 80 1.2 CALM 0 0 0 0 1023.4 1023.3 0.0
25/07:00am 3.9 2.0 0.6 79 1.3 CALM 0 0 0 0 1023.0 1022.9 0.0
25/06:30am 4.2 2.4 0.9 79 1.3 CALM 0 0 0 0 1022.8 1022.7 0.0
25/06:00am 4.2 2.3 0.7 78 1.3 CALM 0 0 0 0 1022.4 1022.3 0.0
25/05:30am 4.6 2.8 1.1 78 1.4 CALM 0 0 0 0 1022.5 1022.4 0.0
25/05:00am 4.9 3.2 1.6 79 1.3 CALM 0 0 0 0 1022.5 1022.4 0.0
25/04:30am 5.1 3.3 1.4 77 1.5 CALM 0 0 0 0 1022.6 1022.5 0.0
25/04:00am 5.4 3.6 1.3 75 1.6 CALM 0 0 0 0 1022.6 1022.5 0.0
25/03:30am 5.8 4.0 1.2 72 1.8 CALM 0 0 0 0 1022.8 1022.7 0.0
25/03:00am 7.2 5.6 2.3 71 2.0 CALM 0 0 0 0 1022.9 1022.8 0.0
25/02:30am 6.2 3.3 1.5 72 1.9 ENE 6 7 3 4 1022.8 1022.7 0.0
25/02:00am 6.4 3.3 1.3 70 2.1 ENE 7 9 4 5 1022.9 1022.8 0.0
25/01:30am 6.5 3.6 1.4 70 2.0 NE 6 7 3 4 1022.9 1022.8 0.0
25/01:00am 6.7 3.6 1.6 70 2.1 ENE 7 9 4 5 1023.0 1022.9 0.0
25/12:30am 7.5 4.7 2.0 68 2.3 ENE 6 9 3 5 1023.3 1023.2 0.0
25/12:00am 9.1 6.5 3.1 66 2.6 NE 6 7 3 4 1023.4 1023.3 0.0
 
Date/Time
CST
Temp
°C
App
Temp
°C
Dew
Point
°C
Rel
Hum
%
Delta-T
°C
Wind Press
QNH
hPa
Press
MSL
hPa
Rain since
9am
mm
Dir  Spd
km/h
Gust
km/h
Spd
kts
Gust
kts
24/11:30pm 8.2 5.2 2.0 65 2.6 ENE 7 7 4 4 1023.4 1023.3 0.0
24/11:00pm 8.8 5.8 2.2 63 2.8 ENE 7 9 4 5 1023.5 1023.4 0.0
24/10:30pm 9.2 6.2 2.3 62 2.9 ENE 7 9 4 5 1023.5 1023.4 0.0
24/10:00pm 9.1 6.7 2.2 62 2.9 NE 4 11 2 6 1023.6 1023.5 0.0
24/09:30pm 9.1 7.5 2.2 62 2.9 CALM 0 0 0 0 1023.4 1023.3 0.0
24/09:00pm 9.9 8.2 2.0 58 3.3 CALM 0 0 0 0 1023.5 1023.4 0.0
24/08:30pm 10.5 8.9 2.4 57 3.5 CALM 0 0 0 0 1023.6 1023.5 0.0
24/08:00pm 10.9 8.0 2.5 56 3.6 ENE 7 9 4 5 1023.2 1023.1 0.0
24/07:30pm 12.6 11.0 2.2 49 4.5 CALM 0 0 0 0 1023.1 1023.0 0.0
24/07:00pm 13.4 11.8 2.6 48 4.8 CALM 0 0 0 0 1022.8 1022.7 0.0
24/06:30pm 14.8 12.8 2.4 43 5.5 NNE 2 6 1 3 1022.7 1022.6 0.0
24/06:00pm 17.2 14.2 2.0 36 6.8 NNE 7 9 4 5 1022.4 1022.3 0.0
24/05:30pm 19.6 17.5 2.0 31 8.1 NNE 2 9 1 5 1022.2 1022.1 0.0
24/05:00pm 20.9 17.9 1.7 28 8.9 N 7 11 4 6 1022.1 1022.0 0.0
24/04:30pm 21.5 18.6 1.7 27 9.2 NNW 6 11 3 6 1022.0 1021.9 0.0
24/04:00pm 21.4 18.4 2.2 28 9.0 ENE 7 13 4 7 1022.0 1021.9 0.0
24/03:30pm 21.6 18.8 1.8 27 9.2 NNE 6 13 3 7 1022.2 1022.1 0.0
24/03:00pm 21.5 18.2 2.2 28 9.0 SW 9 13 5 7 1022.2 1022.1 0.0
24/02:30pm 21.7 19.3 2.4 28 9.1 WNW 4 15 2 8 1022.4 1022.3 0.0
24/02:00pm 21.6 19.3 2.8 29 8.9 W 4 11 2 6 1022.6 1022.5 0.0
24/01:30pm 20.9 18.7 3.2 31 8.4 NE 4 9 2 5 1022.9 1022.8 0.0
24/01:00pm 20.1 17.4 2.5 31 8.2 SE 6 11 3 6 1023.4 1023.3 0.0
24/12:30pm 19.8 16.5 2.2 31 8.1 W 9 17 5 9 1024.0 1023.9 0.0
24/12:00pm 19.6 16.8 2.9 33 7.8 NW 7 13 4 7 1024.5 1024.4 0.0
24/11:30am 19.1 16.4 2.9 34 7.5 WSW 6 15 3 8 1025.0 1024.9 0.0
24/11:00am 18.1 14.9 3.2 37 7.0 W 9 11 5 6 1025.3 1025.2 0.0
24/10:30am 16.8 14.7 3.8 42 6.0 W 4 11 2 6 1025.5 1025.4 0.0
24/10:00am 15.1 13.8 3.9 47 5.2 CALM 0 0 0 0 1025.5 1025.4 0.0
24/09:30am 13.7 12.3 3.5 50 4.6 CALM 0 0 0 0 1025.4 1025.3 0.0
24/09:00am 11.4 9.8 2.4 54 3.9 CALM 0 0 0 0 1025.4 1025.3 0.0
24/08:30am 8.4 6.6 1.3 61 2.9 CALM 0 0 0 0 1025.2 1025.1 0.0
24/08:00am 5.0 1.9 0.0 70 1.9 NE 6 7 3 4 1024.8 1024.7 0.0
24/07:30am 3.0 -0.8 -0.6 77 1.3 NE 9 9 5 5 1024.4 1024.3 0.0
24/07:00am 2.8 0.7 -0.8 77 1.3 CALM 0 0 0 0 1024.5 1024.4 0.0
24/06:30am 2.7 -0.6 -1.1 76 1.4 NE 6 7 3 4 1024.4 1024.3 0.0
24/06:00am 3.2 1.1 -1.0 74 1.5 CALM 0 0 0 0 1024.1 1024.0 0.0
24/05:30am 3.6 1.5 -0.6 74 1.5 CALM 0 0 0 0 1024.0 1023.9 0.0
24/05:00am 3.4 0.0 -0.8 74 1.5 ENE 7 7 4 4 1023.9 1023.8 0.0
24/04:30am 3.6 1.5 -0.6 74 1.5 CALM 0 0 0 0 1023.7 1023.6 0.0
24/04:00am 4.2 2.1 -1.0 69 1.9 CALM 0 0 0 0 1023.6 1023.5 0.0
24/03:30am 4.0 0.7 -1.0 70 1.8 NE 6 6 3 3 1023.7 1023.6 0.0
24/03:00am 4.4 2.4 -0.4 71 1.8 CALM 0 0 0 0 1023.6 1023.5 0.0
24/02:30am 4.6 2.5 -0.6 69 1.9 CALM 0 0 0 0 1023.6 1023.5 0.0
24/02:00am 4.8 2.7 -0.6 68 2.0 CALM 0 0 0 0 1023.6 1023.5 0.0
24/01:30am 5.0 2.9 -0.6 67 2.1 CALM 0 0 0 0 1023.7 1023.6 0.0
24/01:00am 5.2 3.1 -0.6 66 2.2 CALM 0 0 0 0 1023.6 1023.5 0.0
24/12:30am 5.4 3.4 -0.4 66 2.2 CALM 0 0 0 0 1023.7 1023.6 0.0
24/12:00am 5.7 3.7 -0.4 65 2.3 CALM 0 0 0 0 1023.7 1023.6 0.0
 
Date/Time
CST
Temp
°C
App
Temp
°C
Dew
Point
°C
Rel
Hum
%
Delta-T
°C
Wind Press
QNH
hPa
Press
MSL
hPa
Rain since
9am
mm
Dir  Spd
km/h
Gust
km/h
Spd
kts
Gust
kts
23/11:30pm 6.4 4.4 -0.3 62 2.6 CALM 0 0 0 0 1023.7 1023.6 0.0
23/11:00pm 6.6 4.6 -0.4 61 2.7 CALM 0 0 0 0 1023.6 1023.5 0.0
23/10:30pm 6.8 4.8 -0.4 60 2.8 CALM 0 0 0 0 1023.5 1023.4 0.0
23/10:00pm 7.6 5.5 -0.6 56 3.2 CALM 0 0 0 0 1023.5 1023.4 0.0
23/09:30pm 8.1 6.1 -0.1 56 3.2 CALM 0 0 0 0 1023.5 1023.4 0.0
23/09:00pm 8.4 6.3 -0.9 52 3.6 CALM 0 0 0 0 1023.3 1023.2 0.0
23/08:30pm 9.4 7.2 -1.3 47 4.1 CALM 0 0 0 0 1023.1 1023.0 0.0
23/08:00pm 10.0 6.7 -1.1 46 4.4 WSW 6 7 3 4 1022.7 1022.6 0.0
23/07:30pm 11.0 7.5 -1.1 43 4.8 WSW 7 9 4 5 1022.4 1022.3 0.0
23/07:00pm 11.9 7.6 -1.6 39 5.4 W 11 13 6 7 1022.0 1021.9 0.0
23/06:30pm 12.6 8.3 -1.7 37 5.7 W 11 13 6 7 1021.6 1021.5 0.0
23/06:00pm 15.1 11.1 -1.9 31 6.9 WSW 9 15 5 8 1021.1 1020.9 0.0
23/05:30pm 17.6 12.5 -2.1 26 8.2 WSW 15 20 8 11 1020.8 1020.6 0.0
23/05:00pm 18.9 12.8 -2.7 23 9.0 WSW 20 28 11 15 1020.5 1020.3 0.0
23/04:30pm 19.5 12.6 -2.8 22 9.3 WSW 24 33 13 18 1020.2 1020.1 0.0
23/04:00pm 20.2 13.4 -2.2 22 9.5 W 24 33 13 18 1020.0 1019.9 0.0
23/03:30pm 20.2 12.6 -2.2 22 9.5 WSW 28 39 15 21 1019.8 1019.7 0.0
23/03:00pm 20.4 12.9 -1.4 23 9.4 W 28 37 15 20 1019.8 1019.7 0.0
23/02:30pm 20.6 12.4 -1.2 23 9.5 W 32 44 17 24 1019.8 1019.7 0.0
23/02:00pm 20.2 12.4 -1.0 24 9.3 W 30 41 16 22 1019.8 1019.7 0.0
23/01:30pm 20.1 12.9 0.5 27 8.8 W 28 39 15 21 1020.1 1020.0 0.0
23/01:08pm 19.4 11.9 0.9 29 8.3 W 30 48 16 26 1020.5 1020.3 0.0
23/01:00pm 19.7 11.6 0.7 28 8.5 W 33 50 18 27 1020.6 1020.4 0.0
23/12:52pm 19.8 12.5 0.3 27 8.7 W 28 48 15 26 1020.6 1020.4 0.0
23/12:30pm 19.8 12.3 1.3 29 8.4 W 30 46 16 25 1020.9 1020.7 0.0
23/12:26pm 19.7 12.5 0.7 28 8.5 W 28 46 15 25 1020.9 1020.7 0.0
23/12:00pm 19.3 12.7 2.2 32 7.9 W 26 37 14 20 1021.2 1021.0 0.0
23/11:30am 18.8 13.0 2.2 33 7.6 W 22 32 12 17 1021.5 1021.3 0.0
23/11:00am 18.4 13.4 3.5 37 7.0 W 19 24 10 13 1021.9 1021.8 0.0
23/10:30am 17.3 12.7 3.9 41 6.3 WSW 17 24 9 13 1022.2 1022.1 0.0
23/10:00am 16.4 12.8 4.8 46 5.5 W 13 20 7 11 1022.3 1022.2 0.0
23/09:30am 15.1 14.1 8.8 66 3.2 NNW 4 9 2 5 1022.2 1022.1 0.0
23/09:00am 12.6 11.7 9.4 81 1.6 NNE 4 7 2 4 1022.1 1022.0 0.0
23/08:30am 10.4 10.2 9.0 91 0.7 CALM 0 0 0 0 1021.9 1021.8 0.0
23/08:00am 7.8 7.1 6.9 94 0.4 CALM 0 0 0 0 1021.6 1021.5 0.0
23/07:30am 5.8 4.6 4.6 92 0.5 CALM 0 0 0 0 1021.3 1021.1 0.0
23/07:00am 5.7 4.4 4.3 91 0.6 CALM 0 0 0 0 1020.9 1020.7 0.0
23/06:30am 6.3 5.1 4.6 89 0.7 CALM 0 0 0 0 1020.7 1020.5 0.0
23/06:00am 7.0 6.0 5.5 90 0.7 CALM 0 0 0 0 1020.3 1020.2 0.0
23/05:30am 7.9 6.3 6.5 91 0.6 WSW 4 7 2 4 1020.1 1020.0 0.0
23/05:00am 8.2 5.8 6.8 91 0.7 WSW 9 11 5 6 1019.9 1019.8 0.0
23/04:30am 8.8 6.0 7.1 89 0.8 W 11 11 6 6 1019.7 1019.6 0.0
23/04:00am 9.6 7.8 8.0 90 0.8 W 7 9 4 5 1019.4 1019.3 0.0
23/03:30am 10.1 7.6 8.4 89 0.8 WSW 11 13 6 7 1019.1 1019.0 0.0
23/03:00am 10.9 8.6 9.0 88 0.9 SSW 11 13 6 7 1019.1 1019.0 0.0
23/02:30am 11.5 8.9 9.4 87 1.1 SW 13 15 7 8 1019.2 1019.1 0.0
23/02:00am 11.7 9.5 9.3 85 1.2 WSW 11 13 6 7 1019.4 1019.3 0.0
23/01:30am 12.5 9.6 9.7 83 1.4 SW 15 17 8 9 1019.3 1019.2 0.0
23/01:00am 13.0 10.1 9.6 80 1.7 WSW 15 17 8 9 1019.4 1019.3 0.0
23/12:30am 13.2 10.3 9.8 80 1.7 SW 15 19 8 10 1019.4 1019.3 0.0
23/12:00am 13.7 11.3 9.9 78 2.0 SW 13 17 7 9 1019.3 1019.2 0.0
 
Date/Time
CST
Temp
°C
App
Temp
°C
Dew
Point
°C
Rel
Hum
%
Delta-T
°C
Wind Press
QNH
hPa
Press
MSL
hPa
Rain since
9am
mm
Dir  Spd
km/h
Gust
km/h
Spd
kts
Gust
kts
22/11:30pm 13.9 11.3 9.5 75 2.3 SW 13 13 7 7 1019.4 1019.3 0.0
22/11:00pm 15.2 12.8 10.0 71 2.7 SW 13 17 7 9 1019.3 1019.2 0.0
22/10:30pm 16.0 13.6 9.9 67 3.2 SW 13 20 7 11 1019.0 1018.9 0.0
22/10:00pm 16.8 13.9 9.5 62 3.8 SSW 15 20 8 11 1018.7 1018.6 0.0
22/09:30pm 17.6 13.6 9.2 58 4.4 SSW 20 26 11 14 1018.5 1018.4 0.0
22/09:00pm 18.6 13.6 8.0 50 5.5 SSW 24 39 13 21 1018.2 1018.1 0.0
22/08:30pm 18.8 15.1 7.9 49 5.6 SSW 17 24 9 13 1017.7 1017.6 0.0
22/08:00pm 19.2 16.3 8.2 49 5.7 SSW 13 19 7 10 1017.1 1017.0 0.0
22/07:30pm 20.2 16.7 8.8 48 6.0 SW 17 24 9 13 1016.6 1016.5 0.0
22/07:00pm 18.6 16.2 8.6 52 5.2 W 11 13 6 7 1015.8 1015.7 0.0
22/06:30pm 20.5 18.4 8.2 45 6.4 WSW 9 11 5 6 1015.3 1015.2 0.0
22/06:00pm 22.4 19.6 8.5 41 7.4 SW 13 15 7 8 1014.8 1014.7 0.0
22/05:30pm 23.6 19.9 8.1 37 8.2 SW 17 22 9 12 1014.4 1014.2 0.0
22/05:00pm 24.4 19.8 5.7 30 9.6 WSW 19 30 10 16 1014.0 1013.8 0.0
22/04:30pm 25.5 20.2 2.9 23 11.1 WSW 20 28 11 15 1013.6 1013.4 0.0
22/04:00pm 26.1 20.0 2.7 22 11.5 WSW 24 33 13 18 1013.1 1012.9 0.0
22/03:30pm 26.4 21.7 3.0 22 11.6 WSW 17 26 9 14 1013.0 1012.8 0.0
22/03:00pm 26.7 21.6 3.9 23 11.5 WSW 20 30 11 16 1012.8 1012.6 0.0
22/02:30pm 26.5 20.8 3.1 22 11.6 WNW 22 30 12 16 1012.8 1012.6 0.0
22/02:00pm 26.2 21.3 4.1 24 11.1 NW 19 28 10 15 1012.9 1012.7 0.0
22/01:30pm 25.8 20.2 3.7 24 11.0 NW 22 30 12 16 1013.0 1012.8 0.0
22/01:00pm 25.1 18.8 3.7 25 10.6 NNW 26 33 14 18 1013.3 1013.1 0.0
22/12:30pm 25.1 19.2 3.7 25 10.6 NNW 24 37 13 20 1013.7 1013.5 0.0
22/12:00pm 24.2 16.1 3.5 26 10.2 N 35 46 19 25 1013.5 1013.3 0.0
22/11:30am 23.5 15.0 3.4 27 9.8 N 37 48 20 26 1014.0 1013.8 0.0
22/11:00am 22.9 15.6 4.4 30 9.2 N 32 43 17 23 1014.5 1014.3 0.0
22/10:30am 22.0 15.8 4.1 31 8.7 N 26 39 14 21 1015.0 1014.9 0.0
22/10:00am 20.7 13.2 3.4 32 8.3 N 32 50 17 27 1014.8 1014.7 0.0
22/09:57am 20.9 13.4 3.6 32 8.3 N 32 50 17 27 1014.9 1014.8 0.0
22/09:30am 20.8 15.0 4.4 34 8.0 N 24 35 13 19 1015.0 1014.9 0.0

Other Formats:

Comma delimited format used in spreadsheet applications
http://www.bom.gov.au/fwo/IDS60801/IDS60801.94655.axf

JavaScript Object Notation format (JSON) in row-major order
http://www.bom.gov.au/fwo/IDS60801/IDS60801.94655.json